sensor_id;sensor_type;location;lat;lon;timestamp;pressure;altitude;pressure_sealevel;temperature;humidity
13387;BME280;6763;48.524;9.044;2023-01-26T00:01:44;98303.63;;;6.99;50.24
13387;BME280;6763;48.524;9.044;2023-01-26T00:04:10;98291.63;;;7.00;50.48
13387;BME280;6763;48.524;9.044;2023-01-26T00:06:36;98291.59;;;6.98;50.03
13387;BME280;6763;48.524;9.044;2023-01-26T00:09:01;98292.47;;;6.99;50.35
13387;BME280;6763;48.524;9.044;2023-01-26T00:11:27;98274.44;;;6.99;50.13
13387;BME280;6763;48.524;9.044;2023-01-26T00:13:55;98272.75;;;7.02;50.15
13387;BME280;6763;48.524;9.044;2023-01-26T00:16:21;98266.75;;;7.05;49.99
13387;BME280;6763;48.524;9.044;2023-01-26T00:18:47;98263.34;;;7.07;50.15
13387;BME280;6763;48.524;9.044;2023-01-26T00:21:14;98269.31;;;7.11;50.30
13387;BME280;6763;48.524;9.044;2023-01-26T00:23:40;98272.75;;;7.08;50.12
13387;BME280;6763;48.524;9.044;2023-01-26T00:26:08;98264.19;;;7.00;50.18
13387;BME280;6763;48.524;9.044;2023-01-26T00:28:33;98254.72;;;6.96;50.55
13387;BME280;6763;48.524;9.044;2023-01-26T00:31:07;98246.97;;;6.93;50.65
13387;BME280;6763;48.524;9.044;2023-01-26T00:33:34;98248.69;;;6.88;50.99
13387;BME280;6763;48.524;9.044;2023-01-26T00:35:59;98244.38;;;6.85;51.07
13387;BME280;6763;48.524;9.044;2023-01-26T00:38:24;98238.38;;;6.85;50.95
13387;BME280;6763;48.524;9.044;2023-01-26T00:40:50;98234.97;;;6.81;51.21
13387;BME280;6763;48.524;9.044;2023-01-26T00:43:16;98235.81;;;6.79;51.28
13387;BME280;6763;48.524;9.044;2023-01-26T00:45:41;98231.47;;;6.75;51.44
13387;BME280;6763;48.524;9.044;2023-01-26T00:48:07;98224.63;;;6.72;51.45
13387;BME280;6763;48.524;9.044;2023-01-26T00:50:32;98215.19;;;6.71;51.58
13387;BME280;6763;48.524;9.044;2023-01-26T00:52:58;98217.75;;;6.68;51.54
13387;BME280;6763;48.524;9.044;2023-01-26T00:55:24;98218.59;;;6.67;51.63
13387;BME280;6763;48.524;9.044;2023-01-26T00:57:59;98216.88;;;6.63;51.60
13387;BME280;6763;48.524;9.044;2023-01-26T01:00:25;98204.00;;;6.62;51.39
13387;BME280;6763;48.524;9.044;2023-01-26T01:02:51;98210.03;;;6.61;51.52
13387;BME280;6763;48.524;9.044;2023-01-26T01:05:17;98199.72;;;6.58;52.10
13387;BME280;6763;48.524;9.044;2023-01-26T01:07:42;98200.59;;;6.58;52.10
13387;BME280;6763;48.524;9.044;2023-01-26T01:10:08;98195.44;;;6.55;52.41
13387;BME280;6763;48.524;9.044;2023-01-26T01:12:33;98197.13;;;6.56;52.32
13387;BME280;6763;48.524;9.044;2023-01-26T01:14:59;98200.56;;;6.57;52.55
13387;BME280;6763;48.524;9.044;2023-01-26T01:17:24;98204.03;;;6.59;52.23
13387;BME280;6763;48.524;9.044;2023-01-26T01:19:49;98203.16;;;6.58;52.67
13387;BME280;6763;48.524;9.044;2023-01-26T01:22:15;98200.56;;;6.60;52.34
13387;BME280;6763;48.524;9.044;2023-01-26T01:24:40;98188.59;;;6.60;52.21
13387;BME280;6763;48.524;9.044;2023-01-26T01:27:06;98192.00;;;6.61;52.17
13387;BME280;6763;48.524;9.044;2023-01-26T01:29:31;98193.72;;;6.62;52.31
13387;BME280;6763;48.524;9.044;2023-01-26T01:31:57;98192.88;;;6.61;52.32
13387;BME280;6763;48.524;9.044;2023-01-26T01:34:22;98202.31;;;6.61;52.51
13387;BME280;6763;48.524;9.044;2023-01-26T01:36:47;98201.44;;;6.62;52.11
13387;BME280;6763;48.524;9.044;2023-01-26T01:39:13;98194.59;;;6.61;52.72
13387;BME280;6763;48.524;9.044;2023-01-26T01:41:38;98186.88;;;6.61;52.28
13387;BME280;6763;48.524;9.044;2023-01-26T01:44:21;98185.16;;;6.60;52.51
13387;BME280;6763;48.524;9.044;2023-01-26T01:46:56;98191.16;;;6.60;52.80
13387;BME280;6763;48.524;9.044;2023-01-26T01:49:32;98191.16;;;6.60;52.46
13387;BME280;6763;48.524;9.044;2023-01-26T01:52:11;98183.44;;;6.60;52.41
13387;BME280;6763;48.524;9.044;2023-01-26T01:54:50;98182.56;;;6.60;52.19
13387;BME280;6763;48.524;9.044;2023-01-26T01:57:21;98184.31;;;6.61;52.45
13387;BME280;6763;48.524;9.044;2023-01-26T02:00:05;98185.16;;;6.63;52.10
13387;BME280;6763;48.524;9.044;2023-01-26T02:02:34;98177.44;;;6.63;52.34
13387;BME280;6763;48.524;9.044;2023-01-26T02:05:12;98181.75;;;6.65;52.16
13387;BME280;6763;48.524;9.044;2023-01-26T02:07:42;98175.72;;;6.65;52.51
13387;BME280;6763;48.524;9.044;2023-01-26T02:10:08;98174.88;;;6.66;52.32
13387;BME280;6763;48.524;9.044;2023-01-26T02:12:43;98174.03;;;6.64;52.18
13387;BME280;6763;48.524;9.044;2023-01-26T02:15:09;98174.03;;;6.65;52.34
13387;BME280;6763;48.524;9.044;2023-01-26T02:17:35;98167.16;;;6.66;52.55
13387;BME280;6763;48.524;9.044;2023-01-26T02:28:17;98163.75;;;6.64;52.30
13387;BME280;6763;48.524;9.044;2023-01-26T02:30:44;98151.75;;;6.66;52.21
13387;BME280;6763;48.524;9.044;2023-01-26T02:33:24;98158.56;;;6.67;52.22
13387;BME280;6763;48.524;9.044;2023-01-26T02:35:50;98150.03;;;6.68;52.14
13387;BME280;6763;48.524;9.044;2023-01-26T02:38:16;98149.19;;;6.69;52.36
13387;BME280;6763;48.524;9.044;2023-01-26T02:40:53;98141.44;;;6.72;52.17
13387;BME280;6763;48.524;9.044;2023-01-26T02:43:20;98139.75;;;6.71;52.30
13387;BME280;6763;48.524;9.044;2023-01-26T02:45:46;98138.88;;;6.70;52.25
13387;BME280;6763;48.524;9.044;2023-01-26T02:48:11;98148.31;;;6.70;52.36
13387;BME280;6763;48.524;9.044;2023-01-26T02:50:36;98147.44;;;6.65;52.45
13387;BME280;6763;48.524;9.044;2023-01-26T02:53:02;98143.16;;;6.61;52.49
13387;BME280;6763;48.524;9.044;2023-01-26T02:55:28;98145.69;;;6.59;52.46
13387;BME280;6763;48.524;9.044;2023-01-26T02:57:56;98138.84;;;6.60;52.58
13387;BME280;6763;48.524;9.044;2023-01-26T03:00:27;98138.84;;;6.60;52.20
13387;BME280;6763;48.524;9.044;2023-01-26T03:02:56;98138.84;;;6.57;52.73
13387;BME280;6763;48.524;9.044;2023-01-26T03:05:22;98138.88;;;6.58;52.65
13387;BME280;6763;48.524;9.044;2023-01-26T03:07:48;98138.84;;;6.60;52.88
13387;BME280;6763;48.524;9.044;2023-01-26T03:10:13;98138.03;;;6.64;52.38
13387;BME280;6763;48.524;9.044;2023-01-26T03:12:40;98137.16;;;6.63;52.56
13387;BME280;6763;48.524;9.044;2023-01-26T03:15:06;98137.16;;;6.65;52.50
13387;BME280;6763;48.524;9.044;2023-01-26T03:17:50;98129.44;;;6.65;52.67
13387;BME280;6763;48.524;9.044;2023-01-26T03:20:16;98128.59;;;6.67;52.54
13387;BME280;6763;48.524;9.044;2023-01-26T03:23:00;98125.16;;;6.68;52.31
13387;BME280;6763;48.524;9.044;2023-01-26T03:25:44;98120.00;;;6.65;52.94
13387;BME280;6763;48.524;9.044;2023-01-26T03:28:28;98116.56;;;6.62;52.57
13387;BME280;6763;48.524;9.044;2023-01-26T03:30:55;98109.72;;;6.61;52.42
13387;BME280;6763;48.524;9.044;2023-01-26T03:33:23;98112.28;;;6.61;52.48
13387;BME280;6763;48.524;9.044;2023-01-26T03:35:52;98112.28;;;6.59;52.38
13387;BME280;6763;48.524;9.044;2023-01-26T03:38:17;98112.28;;;6.58;52.29
13387;BME280;6763;48.524;9.044;2023-01-26T03:40:43;98102.84;;;6.55;52.71
13387;BME280;6763;48.524;9.044;2023-01-26T03:43:27;98100.25;;;6.54;52.42
13387;BME280;6763;48.524;9.044;2023-01-26T03:46:11;98099.38;;;6.49;52.76
13387;BME280;6763;48.524;9.044;2023-01-26T03:48:55;98106.25;;;6.45;52.79
13387;BME280;6763;48.524;9.044;2023-01-26T03:51:39;98096.81;;;6.41;52.82
13387;BME280;6763;48.524;9.044;2023-01-26T03:54:23;98102.81;;;6.40;52.72
13387;BME280;6763;48.524;9.044;2023-01-26T03:57:07;98109.63;;;6.38;52.87
13387;BME280;6763;48.524;9.044;2023-01-26T03:59:32;98097.66;;;6.39;52.83
13387;BME280;6763;48.524;9.044;2023-01-26T04:02:08;98088.22;;;6.33;52.82
13387;BME280;6763;48.524;9.044;2023-01-26T04:04:53;98093.38;;;6.36;53.20
13387;BME280;6763;48.524;9.044;2023-01-26T04:07:37;98102.81;;;6.33;53.50
13387;BME280;6763;48.524;9.044;2023-01-26T04:10:22;98098.50;;;6.33;53.46
13387;BME280;6763;48.524;9.044;2023-01-26T04:12:48;98098.50;;;6.35;53.85
13387;BME280;6763;48.524;9.044;2023-01-26T04:15:32;98100.19;;;6.31;53.70
13387;BME280;6763;48.524;9.044;2023-01-26T04:18:16;98100.22;;;6.30;53.79
13387;BME280;6763;48.524;9.044;2023-01-26T04:21:04;98101.06;;;6.29;54.02
13387;BME280;6763;48.524;9.044;2023-01-26T04:23:49;98107.06;;;6.29;53.71
13387;BME280;6763;48.524;9.044;2023-01-26T04:26:15;98108.78;;;6.30;54.16
13387;BME280;6763;48.524;9.044;2023-01-26T04:28:40;98101.91;;;6.31;53.71
13387;BME280;6763;48.524;9.044;2023-01-26T04:31:06;98096.78;;;6.31;54.18
13387;BME280;6763;48.524;9.044;2023-01-26T04:33:31;98100.22;;;6.33;53.92
13387;BME280;6763;48.524;9.044;2023-01-26T04:36:02;98092.50;;;6.31;54.09
13387;BME280;6763;48.524;9.044;2023-01-26T04:38:27;98089.94;;;6.30;54.37
13387;BME280;6763;48.524;9.044;2023-01-26T04:40:53;98085.63;;;6.29;54.06
13387;BME280;6763;48.524;9.044;2023-01-26T04:43:18;98083.06;;;6.27;54.19
13387;BME280;6763;48.524;9.044;2023-01-26T04:45:44;98078.78;;;6.24;54.56
13387;BME280;6763;48.524;9.044;2023-01-26T04:48:09;98079.66;;;6.25;54.67
13387;BME280;6763;48.524;9.044;2023-01-26T04:50:34;98073.66;;;6.24;54.41
13387;BME280;6763;48.524;9.044;2023-01-26T04:52:59;98069.34;;;6.23;54.38
13387;BME280;6763;48.524;9.044;2023-01-26T04:55:25;98072.75;;;6.21;54.80
13387;BME280;6763;48.524;9.044;2023-01-26T04:57:50;98081.31;;;6.20;54.84
13387;BME280;6763;48.524;9.044;2023-01-26T05:00:16;98075.34;;;6.19;54.66
13387;BME280;6763;48.524;9.044;2023-01-26T05:02:41;98067.63;;;6.19;55.07
13387;BME280;6763;48.524;9.044;2023-01-26T05:05:07;98071.91;;;6.19;55.07
13387;BME280;6763;48.524;9.044;2023-01-26T05:07:32;98070.19;;;6.16;54.61
13387;BME280;6763;48.524;9.044;2023-01-26T05:09:57;98074.47;;;6.14;54.86
13387;BME280;6763;48.524;9.044;2023-01-26T05:12:23;98071.91;;;6.14;55.29
13387;BME280;6763;48.524;9.044;2023-01-26T05:14:57;98063.31;;;6.14;54.78
13387;BME280;6763;48.524;9.044;2023-01-26T05:17:22;98073.63;;;6.17;55.06
13387;BME280;6763;48.524;9.044;2023-01-26T05:19:48;98070.16;;;6.13;55.03
13387;BME280;6763;48.524;9.044;2023-01-26T05:22:13;98076.16;;;6.12;54.92
13387;BME280;6763;48.524;9.044;2023-01-26T05:24:38;98070.16;;;6.13;55.35
13387;BME280;6763;48.524;9.044;2023-01-26T05:27:04;98069.31;;;6.13;55.31
13387;BME280;6763;48.524;9.044;2023-01-26T05:29:48;98065.03;;;6.09;55.50
13387;BME280;6763;48.524;9.044;2023-01-26T05:32:14;98072.75;;;6.12;55.10
13387;BME280;6763;48.524;9.044;2023-01-26T05:34:39;98077.03;;;6.11;55.50
13387;BME280;6763;48.524;9.044;2023-01-26T05:37:04;98082.16;;;6.11;55.26
13387;BME280;6763;48.524;9.044;2023-01-26T05:39:30;98077.88;;;6.10;55.09
13387;BME280;6763;48.524;9.044;2023-01-26T05:41:55;98072.69;;;6.03;55.06
13387;BME280;6763;48.524;9.044;2023-01-26T05:44:23;98079.53;;;5.99;55.06
13387;BME280;6763;48.524;9.044;2023-01-26T05:46:49;98082.09;;;5.96;55.37
13387;BME280;6763;48.524;9.044;2023-01-26T05:49:15;98071.81;;;5.93;55.57
13387;BME280;6763;48.524;9.044;2023-01-26T05:51:43;98086.34;;;5.94;55.09
13387;BME280;6763;48.524;9.044;2023-01-26T05:54:09;98078.66;;;5.91;55.43
13387;BME280;6763;48.524;9.044;2023-01-26T05:56:34;98078.66;;;5.91;55.97
13387;BME280;6763;48.524;9.044;2023-01-26T05:58:59;98082.97;;;5.94;55.63
13387;BME280;6763;48.524;9.044;2023-01-26T06:01:24;98079.50;;;5.95;55.55
13387;BME280;6763;48.524;9.044;2023-01-26T06:03:50;98075.25;;;5.94;55.79
13387;BME280;6763;48.524;9.044;2023-01-26T06:06:15;98080.38;;;5.95;56.07
13387;BME280;6763;48.524;9.044;2023-01-26T06:08:40;98083.78;;;5.94;55.45
13387;BME280;6763;48.524;9.044;2023-01-26T06:11:06;98082.06;;;5.92;56.03
13387;BME280;6763;48.524;9.044;2023-01-26T06:13:31;98087.22;;;5.90;55.98
13387;BME280;6763;48.524;9.044;2023-01-26T06:15:59;98087.22;;;5.89;55.70
13387;BME280;6763;48.524;9.044;2023-01-26T06:18:25;98080.34;;;5.89;55.97
13387;BME280;6763;48.524;9.044;2023-01-26T06:20:50;98085.50;;;5.91;56.50
13387;BME280;6763;48.524;9.044;2023-01-26T06:23:16;98087.22;;;5.90;55.81
13387;BME280;6763;48.524;9.044;2023-01-26T06:25:44;98076.94;;;5.90;55.79
13387;BME280;6763;48.524;9.044;2023-01-26T06:28:09;98087.19;;;5.87;55.93
13387;BME280;6763;48.524;9.044;2023-01-26T06:30:34;98085.44;;;5.83;56.39
13387;BME280;6763;48.524;9.044;2023-01-26T06:33:00;98090.59;;;5.85;56.16
13387;BME280;6763;48.524;9.044;2023-01-26T06:35:25;98086.34;;;5.85;55.98
13387;BME280;6763;48.524;9.044;2023-01-26T06:37:51;98089.75;;;5.86;56.53
13387;BME280;6763;48.524;9.044;2023-01-26T06:40:17;98084.63;;;5.86;56.41
13387;BME280;6763;48.524;9.044;2023-01-26T06:42:49;98079.50;;;5.89;55.74
13387;BME280;6763;48.524;9.044;2023-01-26T06:45:16;98083.78;;;5.90;56.38
13387;BME280;6763;48.524;9.044;2023-01-26T06:47:49;98088.94;;;5.91;55.59
13387;BME280;6763;48.524;9.044;2023-01-26T06:50:17;98087.22;;;5.90;55.59
13387;BME280;6763;48.524;9.044;2023-01-26T06:52:46;98084.63;;;5.92;56.19
13387;BME280;6763;48.524;9.044;2023-01-26T06:55:23;98083.78;;;5.90;55.47
13387;BME280;6763;48.524;9.044;2023-01-26T06:57:52;98084.63;;;5.87;56.13
13387;BME280;6763;48.524;9.044;2023-01-26T07:00:18;98083.78;;;5.88;55.90
13387;BME280;6763;48.524;9.044;2023-01-26T07:02:43;98081.22;;;5.88;55.85
13387;BME280;6763;48.524;9.044;2023-01-26T07:05:08;98080.38;;;5.91;55.99
13387;BME280;6763;48.524;9.044;2023-01-26T07:07:34;98082.06;;;5.92;56.10
13387;BME280;6763;48.524;9.044;2023-01-26T07:09:59;98078.66;;;5.91;55.71
13387;BME280;6763;48.524;9.044;2023-01-26T07:12:25;98081.22;;;5.91;55.88
13387;BME280;6763;48.524;9.044;2023-01-26T07:14:50;98088.94;;;5.91;56.00
13387;BME280;6763;48.524;9.044;2023-01-26T07:17:16;98093.22;;;5.94;55.89
13387;BME280;6763;48.524;9.044;2023-01-26T07:19:41;98086.34;;;5.94;55.72
13387;BME280;6763;48.524;9.044;2023-01-26T07:22:07;98084.66;;;5.93;56.03
13387;BME280;6763;48.524;9.044;2023-01-26T07:24:32;98088.94;;;5.96;55.94
13387;BME280;6763;48.524;9.044;2023-01-26T07:26:58;98093.25;;;5.98;56.02
13387;BME280;6763;48.524;9.044;2023-01-26T07:29:23;98097.53;;;6.05;55.73
13387;BME280;6763;48.524;9.044;2023-01-26T07:31:49;98098.41;;;6.07;55.98
13387;BME280;6763;48.524;9.044;2023-01-26T07:34:14;98095.88;;;6.12;55.37
13387;BME280;6763;48.524;9.044;2023-01-26T07:36:40;98090.72;;;6.10;55.35
13387;BME280;6763;48.524;9.044;2023-01-26T07:39:05;98101.88;;;6.09;55.17
13387;BME280;6763;48.524;9.044;2023-01-26T07:41:31;98101.00;;;6.09;55.36
13387;BME280;6763;48.524;9.044;2023-01-26T07:43:56;98100.97;;;6.07;55.11
13387;BME280;6763;48.524;9.044;2023-01-26T07:46:21;98106.13;;;6.06;54.92
13387;BME280;6763;48.524;9.044;2023-01-26T07:48:48;98094.97;;;6.04;54.78
13387;BME280;6763;48.524;9.044;2023-01-26T07:51:14;98102.66;;;6.02;54.76
13387;BME280;6763;48.524;9.044;2023-01-26T07:53:39;98094.09;;;6.00;55.10
13387;BME280;6763;48.524;9.044;2023-01-26T07:56:13;98095.84;;;6.06;54.86
13387;BME280;6763;48.524;9.044;2023-01-26T07:58:40;98093.25;;;6.03;54.82
13387;BME280;6763;48.524;9.044;2023-01-26T08:01:11;98088.13;;;6.03;55.01
13387;BME280;6763;48.524;9.044;2023-01-26T08:03:37;98092.41;;;6.01;54.51
13387;BME280;6763;48.524;9.044;2023-01-26T08:06:02;98094.94;;;5.99;55.00
13387;BME280;6763;48.524;9.044;2023-01-26T08:08:28;98093.25;;;6.00;54.79
13387;BME280;6763;48.524;9.044;2023-01-26T08:10:57;98088.97;;;6.02;54.53
13387;BME280;6763;48.524;9.044;2023-01-26T08:13:25;98085.53;;;6.00;54.52
13387;BME280;6763;48.524;9.044;2023-01-26T08:15:50;98086.41;;;5.99;54.97
13387;BME280;6763;48.524;9.044;2023-01-26T08:18:16;98086.41;;;6.00;54.68
13387;BME280;6763;48.524;9.044;2023-01-26T08:20:48;98088.13;;;6.01;54.57
13387;BME280;6763;48.524;9.044;2023-01-26T08:23:13;98094.13;;;6.08;54.75
13387;BME280;6763;48.524;9.044;2023-01-26T08:25:39;98093.31;;;6.12;54.67
13387;BME280;6763;48.524;9.044;2023-01-26T08:28:04;98091.59;;;6.14;54.81
13387;BME280;6763;48.524;9.044;2023-01-26T08:30:29;98089.88;;;6.16;54.22
13387;BME280;6763;48.524;9.044;2023-01-26T08:32:55;98090.72;;;6.10;54.44
13387;BME280;6763;48.524;9.044;2023-01-26T08:35:20;98094.13;;;6.08;54.36
13387;BME280;6763;48.524;9.044;2023-01-26T08:37:45;98100.09;;;6.02;54.25
13387;BME280;6763;48.524;9.044;2023-01-26T08:40:11;98091.53;;;6.00;54.69
13387;BME280;6763;48.524;9.044;2023-01-26T08:42:36;98089.81;;;5.99;54.40
13387;BME280;6763;48.524;9.044;2023-01-26T08:45:02;98090.66;;;5.98;54.29
13387;BME280;6763;48.524;9.044;2023-01-26T08:47:27;98089.81;;;5.99;54.59
13387;BME280;6763;48.524;9.044;2023-01-26T08:49:52;98090.66;;;6.00;54.58
13387;BME280;6763;48.524;9.044;2023-01-26T08:52:18;98088.94;;;5.97;54.01
13387;BME280;6763;48.524;9.044;2023-01-26T08:54:45;98087.22;;;5.95;54.07
13387;BME280;6763;48.524;9.044;2023-01-26T08:57:10;98088.06;;;5.92;54.47
13387;BME280;6763;48.524;9.044;2023-01-26T08:59:36;98089.78;;;5.95;54.24
13387;BME280;6763;48.524;9.044;2023-01-26T09:02:01;98082.94;;;5.97;54.33
13387;BME280;6763;48.524;9.044;2023-01-26T09:04:27;98085.50;;;5.97;54.05
13387;BME280;6763;48.524;9.044;2023-01-26T09:06:52;98088.94;;;5.97;53.88
13387;BME280;6763;48.524;9.044;2023-01-26T09:09:17;98084.69;;;5.96;54.16
13387;BME280;6763;48.524;9.044;2023-01-26T09:11:43;98082.97;;;5.98;54.29
13387;BME280;6763;48.524;9.044;2023-01-26T09:14:08;98087.25;;;6.01;53.81
13387;BME280;6763;48.524;9.044;2023-01-26T09:16:34;98081.25;;;5.99;53.93
13387;BME280;6763;48.524;9.044;2023-01-26T09:18:59;98076.97;;;5.98;53.61
13387;BME280;6763;48.524;9.044;2023-01-26T09:21:25;98079.53;;;5.96;53.23
13387;BME280;6763;48.524;9.044;2023-01-26T09:23:50;98078.66;;;5.94;52.93
13387;BME280;6763;48.524;9.044;2023-01-26T09:26:16;98084.69;;;5.96;53.63
13387;BME280;6763;48.524;9.044;2023-01-26T09:28:41;98088.94;;;5.97;53.38
13387;BME280;6763;48.524;9.044;2023-01-26T09:31:08;98079.53;;;5.99;53.40
13387;BME280;6763;48.524;9.044;2023-01-26T09:33:35;98081.25;;;6.02;53.13
13387;BME280;6763;48.524;9.044;2023-01-26T09:36:09;98087.28;;;6.04;52.79
13387;BME280;6763;48.524;9.044;2023-01-26T09:38:35;98087.28;;;6.07;52.79
13387;BME280;6763;48.524;9.044;2023-01-26T09:41:21;98083.88;;;6.11;52.84
13387;BME280;6763;48.524;9.044;2023-01-26T09:43:56;98085.59;;;6.15;52.59
13387;BME280;6763;48.524;9.044;2023-01-26T09:49:14;98089.00;;;6.12;51.91
13387;BME280;6763;48.524;9.044;2023-01-26T09:51:52;98089.88;;;6.13;51.56
13387;BME280;6763;48.524;9.044;2023-01-26T09:54:35;98081.28;;;6.12;51.01
13387;BME280;6763;48.524;9.044;2023-01-26T09:57:19;98089.88;;;6.13;50.92
13387;BME280;6763;48.524;9.044;2023-01-26T10:05:19;98094.19;;;6.21;51.40
13387;BME280;6763;48.524;9.044;2023-01-26T10:07:46;98095.91;;;6.24;51.10
13387;BME280;6763;48.524;9.044;2023-01-26T10:10:24;98087.34;;;6.25;50.94
13387;BME280;6763;48.524;9.044;2023-01-26T10:12:51;98083.06;;;6.29;51.22
13387;BME280;6763;48.524;9.044;2023-01-26T10:15:31;98071.94;;;6.34;50.77
13387;BME280;6763;48.524;9.044;2023-01-26T10:18:05;98086.50;;;6.38;50.97
13387;BME280;6763;48.524;9.044;2023-01-26T10:20:41;98077.13;;;6.43;50.93
13387;BME280;6763;48.524;9.044;2023-01-26T10:23:15;98082.25;;;6.48;50.41
13387;BME280;6763;48.524;9.044;2023-01-26T10:25:42;98082.25;;;6.49;50.72
13387;BME280;6763;48.524;9.044;2023-01-26T10:28:17;98089.97;;;6.46;50.06
13387;BME280;6763;48.524;9.044;2023-01-26T10:30:44;98084.81;;;6.40;50.04
13387;BME280;6763;48.524;9.044;2023-01-26T10:33:30;98092.50;;;6.34;50.23
13387;BME280;6763;48.524;9.044;2023-01-26T10:36:00;98094.16;;;6.18;49.83
13387;BME280;6763;48.524;9.044;2023-01-26T10:38:46;98092.44;;;6.11;50.10
13387;BME280;6763;48.524;9.044;2023-01-26T10:46:39;98094.16;;;6.15;50.00
13387;BME280;6763;48.524;9.044;2023-01-26T10:51:35;98096.72;;;6.15;50.03
13387;BME280;6763;48.524;9.044;2023-01-26T10:54:26;98089.88;;;6.20;49.69
13387;BME280;6763;48.524;9.044;2023-01-26T10:56:56;98085.59;;;6.18;49.36
13387;BME280;6763;48.524;9.044;2023-01-26T11:02:02;98092.44;;;6.17;49.49
13387;BME280;6763;48.524;9.044;2023-01-26T11:13:16;98071.94;;;6.36;48.97
13387;BME280;6763;48.524;9.044;2023-01-26T11:15:47;98079.66;;;6.36;49.23
13387;BME280;6763;48.524;9.044;2023-01-26T11:18:34;98075.38;;;6.35;48.41
13387;BME280;6763;48.524;9.044;2023-01-26T11:21:35;98067.66;;;6.36;48.66
13387;BME280;6763;48.524;9.044;2023-01-26T11:34:44;98059.97;;;6.38;47.75
13387;BME280;6763;48.524;9.044;2023-01-26T11:45:27;98054.84;;;6.45;47.01
13387;BME280;6763;48.524;9.044;2023-01-26T11:59:09;98047.13;;;6.42;46.74
13387;BME280;6763;48.524;9.044;2023-01-26T12:01:36;98042.81;;;6.40;46.71
13387;BME280;6763;48.524;9.044;2023-01-26T12:04:03;98044.53;;;6.35;47.02
13387;BME280;6763;48.524;9.044;2023-01-26T12:06:37;98039.34;;;6.25;46.80
13387;BME280;6763;48.524;9.044;2023-01-26T12:14:49;98033.31;;;6.10;47.49
13387;BME280;6763;48.524;9.044;2023-01-26T12:17:31;98029.91;;;6.09;47.22
13387;BME280;6763;48.524;9.044;2023-01-26T12:25:39;98029.97;;;6.37;47.19
13387;BME280;6763;48.524;9.044;2023-01-26T12:28:21;98017.97;;;6.37;46.74
13387;BME280;6763;48.524;9.044;2023-01-26T12:33:40;98013.66;;;6.19;46.78
13387;BME280;6763;48.524;9.044;2023-01-26T12:36:14;98002.50;;;6.10;46.47
13387;BME280;6763;48.524;9.044;2023-01-26T12:44:39;98000.72;;;5.88;47.43
13387;BME280;6763;48.524;9.044;2023-01-26T12:47:11;97990.44;;;5.89;47.92
13387;BME280;6763;48.524;9.044;2023-01-26T12:52:28;97993.88;;;5.88;47.27
13387;BME280;6763;48.524;9.044;2023-01-26T12:55:19;97998.16;;;5.89;47.27
13387;BME280;6763;48.524;9.044;2023-01-26T12:57:54;98001.59;;;5.93;47.51
13387;BME280;6763;48.524;9.044;2023-01-26T13:00:24;97993.06;;;5.94;47.33
13387;BME280;6763;48.524;9.044;2023-01-26T13:03:18;97995.63;;;5.94;46.71
13387;BME280;6763;48.524;9.044;2023-01-26T13:06:00;97996.47;;;5.93;46.78
13387;BME280;6763;48.524;9.044;2023-01-26T13:10:54;97999.91;;;5.96;46.84
13387;BME280;6763;48.524;9.044;2023-01-26T13:15:46;98002.47;;;5.99;46.72
13387;BME280;6763;48.524;9.044;2023-01-26T13:18:16;98005.06;;;6.07;47.02
13387;BME280;6763;48.524;9.044;2023-01-26T13:20:46;97999.06;;;6.12;46.78
13387;BME280;6763;48.524;9.044;2023-01-26T13:23:44;97998.22;;;6.13;46.72
13387;BME280;6763;48.524;9.044;2023-01-26T13:28:43;97998.22;;;6.15;46.42
13387;BME280;6763;48.524;9.044;2023-01-26T13:31:10;97999.06;;;6.15;46.39
13387;BME280;6763;48.524;9.044;2023-01-26T13:33:36;97994.81;;;6.14;46.81
13387;BME280;6763;48.524;9.044;2023-01-26T13:36:05;97998.22;;;6.15;46.59
13387;BME280;6763;48.524;9.044;2023-01-26T13:38:41;98001.66;;;6.15;46.77
13387;BME280;6763;48.524;9.044;2023-01-26T13:41:11;97994.78;;;6.17;46.68
13387;BME280;6763;48.524;9.044;2023-01-26T13:43:44;98002.53;;;6.25;47.19
13387;BME280;6763;48.524;9.044;2023-01-26T13:46:30;97994.81;;;6.28;46.43
13387;BME280;6763;48.524;9.044;2023-01-26T13:48:58;97993.94;;;6.23;46.62
13387;BME280;6763;48.524;9.044;2023-01-26T13:51:30;97994.78;;;6.17;46.71
13387;BME280;6763;48.524;9.044;2023-01-26T13:54:03;97996.50;;;6.12;46.84
13387;BME280;6763;48.524;9.044;2023-01-26T13:56:34;97993.06;;;6.10;47.00
13387;BME280;6763;48.524;9.044;2023-01-26T14:01:46;97993.91;;;6.05;47.18
13387;BME280;6763;48.524;9.044;2023-01-26T14:04:17;97986.19;;;6.00;47.33
13387;BME280;6763;48.524;9.044;2023-01-26T14:06:47;97991.34;;;5.99;47.46
13387;BME280;6763;48.524;9.044;2023-01-26T14:09:15;97991.34;;;5.96;47.59
13387;BME280;6763;48.524;9.044;2023-01-26T14:11:41;97992.19;;;5.95;48.05
13387;BME280;6763;48.524;9.044;2023-01-26T14:14:19;97987.88;;;5.92;48.02
13387;BME280;6763;48.524;9.044;2023-01-26T14:16:47;97990.44;;;5.89;48.05
13387;BME280;6763;48.524;9.044;2023-01-26T14:19:14;97994.75;;;5.90;48.31
13387;BME280;6763;48.524;9.044;2023-01-26T14:21:54;97996.47;;;5.93;47.77
13387;BME280;6763;48.524;9.044;2023-01-26T14:24:30;97998.16;;;5.97;47.95
13387;BME280;6763;48.524;9.044;2023-01-26T14:26:56;98003.31;;;6.00;48.42
13387;BME280;6763;48.524;9.044;2023-01-26T14:29:24;97987.91;;;6.03;48.35
13387;BME280;6763;48.524;9.044;2023-01-26T14:31:51;97997.38;;;6.07;48.19
13387;BME280;6763;48.524;9.044;2023-01-26T14:34:30;97995.63;;;6.06;47.96
13387;BME280;6763;48.524;9.044;2023-01-26T14:37:11;97999.06;;;6.03;48.20
13387;BME280;6763;48.524;9.044;2023-01-26T14:39:38;98004.19;;;5.99;48.28
13387;BME280;6763;48.524;9.044;2023-01-26T14:42:04;98000.75;;;5.95;48.38
13387;BME280;6763;48.524;9.044;2023-01-26T14:44:30;98006.69;;;5.87;48.32
13387;BME280;6763;48.524;9.044;2023-01-26T14:47:00;98012.63;;;5.81;48.86
13387;BME280;6763;48.524;9.044;2023-01-26T14:52:29;98033.16;;;5.74;49.11
13387;BME280;6763;48.524;9.044;2023-01-26T14:54:57;98028.88;;;5.73;48.89
13387;BME280;6763;48.524;9.044;2023-01-26T14:57:25;98021.19;;;5.73;49.03
13387;BME280;6763;48.524;9.044;2023-01-26T14:59:54;98021.16;;;5.71;49.37
13387;BME280;6763;48.524;9.044;2023-01-26T15:02:23;98028.88;;;5.73;49.19
13387;BME280;6763;48.524;9.044;2023-01-26T15:05:19;98024.56;;;5.69;48.89
13387;BME280;6763;48.524;9.044;2023-01-26T15:07:50;98016.88;;;5.69;49.30
13387;BME280;6763;48.524;9.044;2023-01-26T15:15:42;98033.13;;;5.64;49.24
13387;BME280;6763;48.524;9.044;2023-01-26T15:18:15;98026.28;;;5.63;49.48
13387;BME280;6763;48.524;9.044;2023-01-26T15:20:43;98034.00;;;5.67;49.55
13387;BME280;6763;48.524;9.044;2023-01-26T15:23:22;98028.88;;;5.70;49.34